Webcam Flughafen St.Gallen-Altenrhein

Live-Bilder und Zeitraffer LSZR / ACH.

 

Live aus Altenrhein
LIVE
LSZR 231850Z 26012KT 220V310 CAVOK 18/04 Q1023 NOSIG RMK L
Zeitraffer heute
2020-02-23 00:13:59
LSZR 222250Z AUTO VRB02KT CAVOK 06/03 Q1029